createdAt,value
2022-09-28T00:03:24.257Z,7.00
2022-09-28T00:07:26.355Z,7.00
2022-09-28T00:11:29.276Z,7.00
2022-09-28T00:15:41.457Z,7.00
2022-09-28T00:19:46.107Z,7.00
2022-09-28T00:28:35.412Z,7.10
2022-09-28T00:32:39.788Z,7.10
2022-09-28T00:36:49.747Z,7.10
2022-09-28T00:40:56.616Z,7.10
2022-09-28T00:44:59.529Z,7.10
2022-09-28T00:49:07.590Z,7.10
2022-09-28T00:53:09.687Z,7.10
2022-09-28T00:57:12.438Z,7.10
2022-09-28T01:01:14.690Z,7.00
2022-09-28T01:06:06.751Z,7.00
2022-09-28T01:10:10.137Z,7.00
2022-09-28T01:15:05.644Z,6.90
2022-09-28T01:19:17.252Z,6.80
2022-09-28T01:24:03.093Z,6.70
2022-09-28T01:29:13.381Z,6.50
2022-09-28T01:34:05.333Z,6.40
2022-09-28T01:38:25.389Z,6.30
2022-09-28T01:43:10.736Z,6.20
2022-09-28T01:47:16.883Z,6.20
2022-09-28T01:51:53.886Z,6.20
2022-09-28T01:56:02.050Z,6.20
2022-09-28T02:00:29.460Z,6.20
2022-09-28T02:04:51.249Z,6.20
2022-09-28T02:08:59.405Z,6.20
2022-09-28T02:13:37.667Z,6.30
2022-09-28T02:17:41.633Z,6.30
2022-09-28T02:21:54.053Z,6.40
2022-09-28T02:26:03.497Z,6.40
2022-09-28T02:30:19.504Z,6.40
2022-09-28T02:35:33.795Z,6.40
2022-09-28T02:40:09.802Z,6.30
2022-09-28T02:44:44.676Z,6.20
2022-09-28T02:49:10.625Z,6.20
2022-09-28T02:53:53.011Z,6.10
2022-09-28T02:58:33.481Z,6.10
2022-09-28T03:02:51.745Z,6.10
2022-09-28T03:07:02.541Z,6.20
2022-09-28T03:11:10.298Z,6.20
2022-09-28T03:16:02.854Z,6.20
2022-09-28T03:20:06.234Z,6.10
2022-09-28T03:24:33.478Z,6.10
2022-09-28T03:28:41.355Z,6.10
2022-09-28T03:32:59.438Z,6.10
2022-09-28T03:38:02.124Z,6.10
2022-09-28T03:42:07.155Z,6.10
2022-09-28T03:46:13.549Z,6.10
2022-09-28T03:50:21.111Z,6.10
2022-09-28T03:54:26.018Z,6.10
2022-09-28T03:58:29.809Z,6.20
2022-09-28T04:02:32.399Z,6.20
2022-09-28T04:06:34.493Z,6.20
2022-09-28T04:11:06.273Z,6.30
2022-09-28T04:15:09.344Z,6.30
2022-09-28T04:20:05.045Z,6.30
2022-09-28T04:24:30.374Z,6.40
2022-09-28T04:33:20.988Z,6.10
2022-09-28T04:37:27.288Z,5.90
2022-09-28T04:41:29.461Z,5.80
2022-09-28T04:45:35.400Z,5.70
2022-09-28T04:49:43.483Z,5.60
2022-09-28T04:53:51.092Z,5.50
2022-09-28T04:57:56.110Z,5.40
2022-09-28T05:01:58.421Z,5.40
2022-09-28T05:06:34.633Z,5.30
2022-09-28T05:11:34.146Z,5.20
2022-09-28T05:15:42.805Z,5.20
2022-09-28T05:19:51.628Z,5.20
2022-09-28T05:23:56.190Z,5.20
2022-09-28T05:27:59.177Z,5.20
2022-09-28T05:32:21.494Z,5.30
2022-09-28T05:36:51.327Z,5.40
2022-09-28T05:41:18.985Z,5.70
2022-09-28T05:49:39.134Z,6.50
2022-09-28T05:53:41.063Z,7.00
2022-09-28T05:57:43.296Z,7.40
2022-09-28T06:01:59.562Z,7.70
2022-09-28T06:06:02.776Z,7.90
2022-09-28T06:10:26.652Z,8.00
2022-09-28T06:14:34.571Z,8.00
2022-09-28T06:18:37.027Z,7.90
2022-09-28T06:23:22.904Z,8.00
2022-09-28T06:27:25.024Z,8.10
2022-09-28T06:31:30.159Z,8.10
2022-09-28T06:35:35.430Z,8.30
2022-09-28T06:39:38.840Z,8.40
2022-09-28T06:43:48.267Z,8.60
2022-09-28T06:48:01.189Z,8.60
2022-09-28T06:52:24.884Z,8.60
2022-09-28T06:56:53.234Z,8.70
2022-09-28T07:01:04.518Z,8.90
2022-09-28T07:05:19.537Z,9.10
2022-09-28T07:09:55.259Z,9.30
2022-09-28T07:14:42.840Z,9.60
2022-09-28T07:18:47.785Z,9.80
2022-09-28T07:22:57.885Z,10.00
2022-09-28T07:27:31.912Z,10.20
2022-09-28T07:32:10.069Z,10.60
2022-09-28T07:36:49.612Z,10.90
2022-09-28T07:41:22.615Z,11.00
2022-09-28T07:45:26.398Z,11.10
2022-09-28T07:49:28.550Z,11.30
2022-09-28T07:53:48.630Z,11.40
2022-09-28T07:58:52.145Z,11.60
2022-09-28T08:04:25.467Z,11.80
2022-09-28T08:08:30.084Z,12.00
2022-09-28T08:12:36.144Z,12.20
2022-09-28T08:17:16.263Z,12.30
2022-09-28T08:21:45.853Z,12.40
2022-09-28T08:25:50.410Z,12.40
2022-09-28T08:30:00.071Z,12.30
2022-09-28T08:34:19.811Z,12.40
2022-09-28T08:38:49.821Z,12.50
2022-09-28T08:43:48.253Z,12.50
2022-09-28T08:48:35.109Z,12.60
2022-09-28T08:53:19.506Z,12.60
2022-09-28T08:58:02.438Z,12.70
2022-09-28T09:02:34.630Z,12.70
2022-09-28T09:07:20.817Z,12.60
2022-09-28T09:11:48.913Z,12.50
2022-09-28T09:16:59.953Z,12.40
2022-09-28T09:26:43.699Z,12.50
2022-09-28T09:36:47.453Z,12.40
2022-09-28T09:41:22.556Z,12.50
2022-09-28T09:46:23.001Z,12.50
2022-09-28T09:50:57.957Z,12.60
2022-09-28T09:55:02.300Z,12.70
2022-09-28T10:04:40.944Z,12.60
2022-09-28T10:09:32.906Z,12.70
2022-09-28T10:13:54.197Z,12.70
2022-09-28T10:18:23.872Z,12.70
2022-09-28T10:22:58.737Z,12.60
2022-09-28T10:27:32.088Z,12.50
2022-09-28T10:31:59.171Z,12.60
2022-09-28T10:36:10.204Z,12.80
2022-09-28T10:40:40.022Z,13.00
2022-09-28T10:44:55.968Z,13.30
2022-09-28T10:49:28.653Z,13.50
2022-09-28T10:53:37.275Z,13.60
2022-09-28T10:57:40.861Z,13.70
2022-09-28T11:01:44.739Z,13.90
2022-09-28T11:06:15.574Z,14.10
2022-09-28T11:10:23.164Z,14.10
2022-09-28T11:14:42.765Z,14.20
2022-09-28T11:18:59.126Z,14.40
2022-09-28T11:24:07.582Z,14.50
2022-09-28T11:28:50.315Z,14.80
2022-09-28T11:33:12.383Z,15.00
2022-09-28T11:37:46.217Z,15.00
2022-09-28T11:42:23.649Z,15.00
2022-09-28T11:46:33.931Z,14.80
2022-09-28T11:51:03.166Z,14.40
2022-09-28T11:55:21.492Z,13.80
2022-09-28T11:59:29.132Z,13.40
2022-09-28T12:10:23.589Z,13.00
2022-09-28T12:14:38.821Z,12.90
2022-09-28T12:19:09.005Z,12.80
2022-09-28T12:28:18.830Z,12.70
2022-09-28T12:33:24.288Z,12.70
2022-09-28T12:38:11.241Z,12.60
2022-09-28T12:43:13.041Z,12.50
2022-09-28T12:47:40.373Z,12.60
2022-09-28T12:51:52.667Z,12.60
2022-09-28T12:56:34.594Z,12.50
2022-09-28T13:01:14.382Z,12.50
2022-09-28T13:05:30.221Z,12.40
2022-09-28T13:09:58.776Z,12.30
2022-09-28T13:14:49.197Z,12.20
2022-09-28T13:19:02.285Z,12.20
2022-09-28T13:23:31.228Z,12.10
2022-09-28T13:27:52.934Z,12.10
2022-09-28T13:32:01.616Z,12.10
2022-09-28T13:36:26.175Z,12.00
2022-09-28T13:41:29.208Z,12.00
2022-09-28T13:46:09.278Z,12.20
2022-09-28T13:50:49.815Z,12.30
2022-09-28T13:55:25.018Z,12.40
2022-09-28T13:59:44.667Z,12.50
2022-09-28T14:04:19.402Z,12.40
2022-09-28T14:14:44.207Z,12.30
2022-09-28T14:19:13.265Z,12.30
2022-09-28T14:23:38.637Z,12.40
2022-09-28T14:28:17.866Z,12.40
2022-09-28T14:32:25.486Z,12.40
2022-09-28T14:37:11.118Z,12.40
2022-09-28T14:41:36.919Z,12.40
2022-09-28T14:46:28.899Z,12.40
2022-09-28T14:51:15.761Z,12.50
2022-09-28T14:55:52.376Z,12.40
2022-09-28T14:59:58.740Z,12.40
2022-09-28T15:04:04.814Z,12.30
2022-09-28T15:08:08.089Z,12.20
2022-09-28T15:12:19.004Z,12.10
2022-09-28T15:16:24.453Z,12.00
2022-09-28T15:20:38.131Z,11.90
2022-09-28T15:24:40.751Z,11.80
2022-09-28T15:29:03.402Z,11.60
2022-09-28T15:33:24.718Z,11.60
2022-09-28T15:37:44.313Z,11.50
2022-09-28T15:41:50.041Z,11.40
2022-09-28T15:46:04.598Z,11.30
2022-09-28T15:50:36.803Z,11.20
2022-09-28T15:54:43.425Z,11.20
2022-09-28T16:04:23.669Z,11.10
2022-09-28T16:08:39.083Z,11.10
2022-09-28T16:12:57.328Z,11.00
2022-09-28T16:17:00.697Z,11.00
2022-09-28T16:21:28.793Z,10.90
2022-09-28T16:25:31.502Z,10.80
2022-09-28T16:29:41.403Z,10.80
2022-09-28T16:34:11.396Z,10.70
2022-09-28T16:38:15.836Z,10.60
2022-09-28T16:42:17.747Z,10.60
2022-09-28T16:46:23.647Z,10.50
2022-09-28T16:50:28.941Z,10.50
2022-09-28T16:54:49.685Z,10.40
2022-09-28T16:58:54.930Z,10.40
2022-09-28T17:02:58.507Z,10.30
2022-09-28T17:07:21.290Z,10.30
2022-09-28T17:11:57.122Z,10.20
2022-09-28T17:16:17.991Z,10.20
2022-09-28T17:20:30.240Z,10.10
2022-09-28T17:25:00.265Z,10.10
2022-09-28T17:29:02.817Z,10.10
2022-09-28T17:33:05.031Z,10.10
2022-09-28T17:37:14.655Z,10.00
2022-09-28T17:41:23.242Z,9.90
2022-09-28T17:45:52.291Z,9.90
2022-09-28T17:55:24.658Z,9.80
2022-09-28T17:59:28.178Z,9.70
2022-09-28T18:03:30.263Z,9.60
2022-09-28T18:08:28.904Z,9.50
2022-09-28T18:12:31.370Z,9.50
2022-09-28T18:16:33.254Z,9.40
2022-09-28T18:21:25.786Z,9.40
2022-09-28T18:25:27.698Z,9.30
2022-09-28T18:30:13.168Z,9.30
2022-09-28T18:39:50.413Z,9.30
2022-09-28T18:43:52.393Z,9.20
2022-09-28T18:48:27.772Z,9.20
2022-09-28T18:52:53.910Z,9.20
2022-09-28T18:57:24.052Z,9.20
2022-09-28T19:01:30.898Z,9.20
2022-09-28T19:05:35.378Z,9.10
2022-09-28T19:09:53.868Z,9.10
2022-09-28T19:14:21.197Z,9.00
2022-09-28T19:18:23.305Z,9.00
2022-09-28T19:22:25.735Z,9.00
2022-09-28T19:27:03.930Z,9.00
2022-09-28T19:31:09.229Z,9.00
2022-09-28T19:35:13.685Z,9.00
2022-09-28T19:39:15.799Z,9.00
2022-09-28T19:43:32.447Z,8.90
2022-09-28T19:47:35.903Z,8.90
2022-09-28T19:51:46.981Z,8.90
2022-09-28T19:56:05.301Z,8.90
2022-09-28T20:00:08.357Z,8.90
2022-09-28T20:05:00.864Z,8.80
2022-09-28T20:09:03.592Z,8.80
2022-09-28T20:13:37.958Z,8.80
2022-09-28T20:17:41.143Z,8.70
2022-09-28T20:21:45.518Z,8.70
2022-09-28T20:25:52.571Z,8.60
2022-09-28T20:29:54.484Z,8.60
2022-09-28T20:33:56.832Z,8.50
2022-09-28T20:37:59.297Z,8.50
2022-09-28T20:42:01.398Z,8.40
2022-09-28T20:46:05.018Z,8.40
2022-09-28T20:50:07.530Z,8.40
2022-09-28T20:54:09.531Z,8.40
2022-09-28T20:58:38.253Z,8.30
2022-09-28T21:02:44.758Z,8.30
2022-09-28T21:06:46.783Z,8.20
2022-09-28T21:10:52.801Z,8.20
2022-09-28T21:14:54.922Z,8.20
2022-09-28T21:18:59.500Z,8.20
2022-09-28T21:23:01.508Z,8.20
2022-09-28T21:27:03.658Z,8.10
2022-09-28T21:31:08.549Z,8.10
2022-09-28T21:35:11.670Z,8.10
2022-09-28T21:39:15.035Z,8.00
2022-09-28T21:49:08.321Z,8.00
2022-09-28T21:53:10.286Z,8.00
2022-09-28T21:57:12.316Z,8.00
2022-09-28T22:01:20.162Z,7.90
2022-09-28T22:05:22.429Z,7.90
2022-09-28T22:09:24.578Z,7.90
2022-09-28T22:13:28.518Z,7.90
2022-09-28T22:17:32.733Z,7.90
2022-09-28T22:21:35.140Z,7.80
2022-09-28T22:25:39.584Z,7.90
2022-09-28T22:29:42.603Z,7.90
2022-09-28T22:33:44.800Z,7.80
2022-09-28T22:38:53.285Z,7.90
2022-09-28T22:43:23.478Z,7.90
2022-09-28T22:47:42.441Z,7.80
2022-09-28T22:51:45.213Z,7.80
2022-09-28T22:55:48.374Z,7.80
2022-09-28T22:59:54.258Z,7.80
2022-09-28T23:04:04.415Z,7.80
2022-09-28T23:08:06.485Z,7.80
2022-09-28T23:12:12.566Z,7.80
2022-09-28T23:16:15.074Z,7.80
2022-09-28T23:20:17.212Z,7.80
2022-09-28T23:24:50.291Z,7.80
2022-09-28T23:28:53.292Z,7.80
2022-09-28T23:32:55.452Z,7.80
2022-09-28T23:37:00.508Z,7.80
2022-09-28T23:41:02.887Z,7.80
2022-09-28T23:45:05.189Z,7.80
2022-09-28T23:49:34.100Z,7.80
2022-09-28T23:54:00.010Z,7.70
2022-09-28T23:58:02.094Z,7.80
